createdAt,value
2022-08-17T00:01:27.759Z,98282.56
2022-08-17T00:06:35.829Z,98274.06
2022-08-17T00:12:35.010Z,98277.53
2022-08-17T00:17:09.819Z,98288.66
2022-08-17T00:22:31.501Z,98280.97
2022-08-17T00:27:40.979Z,98276.72
2022-08-17T00:33:23.110Z,98278.28
2022-08-17T00:38:15.613Z,98284.09
2022-08-17T00:43:24.100Z,98275.59
2022-08-17T00:48:30.451Z,98279.44
2022-08-17T00:53:45.610Z,98275.91
2022-08-17T00:58:52.538Z,98277.09
2022-08-17T01:03:58.124Z,98279.03
2022-08-17T01:09:08.775Z,98276.28
2022-08-17T01:14:13.822Z,98291.03
2022-08-17T01:19:21.862Z,98286.72
2022-08-17T01:24:29.817Z,98282.78
2022-08-17T01:29:35.016Z,98294.41
2022-08-17T01:34:43.882Z,98290.53
2022-08-17T01:40:03.011Z,98290.16
2022-08-17T01:45:12.141Z,98289.34
2022-08-17T01:50:20.066Z,98280.81
2022-08-17T01:55:36.595Z,98299.25
2022-08-17T02:00:59.346Z,98291.59
2022-08-17T02:06:27.008Z,98295.22
2022-08-17T02:11:38.484Z,98294.91
2022-08-17T02:16:44.264Z,98296.09
2022-08-17T02:21:51.025Z,98302.34
2022-08-17T02:26:58.522Z,98286.34
2022-08-17T02:32:03.444Z,98286.53
2022-08-17T02:37:08.707Z,98279.91
2022-08-17T02:42:17.292Z,98284.81
2022-08-17T02:47:22.319Z,98275.16
2022-08-17T02:52:42.496Z,98278.19
2022-08-17T02:57:59.423Z,98277.34
2022-08-17T03:03:05.372Z,98289.66
2022-08-17T03:08:13.261Z,98281.81
2022-08-17T03:13:21.241Z,98285.97
2022-08-17T03:18:28.091Z,98284.00
2022-08-17T03:23:34.492Z,98281.72
2022-08-17T03:28:42.306Z,98276.44
2022-08-17T03:33:47.409Z,98270.38
2022-08-17T03:38:52.359Z,98273.22
2022-08-17T03:44:00.000Z,98273.59
2022-08-17T03:49:17.487Z,98272.53
2022-08-17T03:54:35.856Z,98279.31
2022-08-17T03:59:45.004Z,98272.84
2022-08-17T04:04:52.674Z,98272.63
2022-08-17T04:09:58.333Z,98279.56
2022-08-17T04:15:06.773Z,98273.19
2022-08-17T04:20:13.344Z,98272.91
2022-08-17T04:25:20.976Z,98279.06
2022-08-17T04:30:29.703Z,98281.06
2022-08-17T04:35:38.185Z,98280.63
2022-08-17T04:40:55.906Z,98286.16
2022-08-17T04:46:05.871Z,98295.97
2022-08-17T04:51:14.854Z,98299.38
2022-08-17T04:56:20.299Z,98303.81
2022-08-17T05:01:29.638Z,98311.00
2022-08-17T05:06:34.732Z,98309.78
2022-08-17T05:11:39.886Z,98307.53
2022-08-17T05:16:52.721Z,98305.53
2022-08-17T05:21:57.656Z,98309.91
2022-08-17T05:27:06.037Z,98298.84
2022-08-17T05:32:38.289Z,98304.25
2022-08-17T05:37:41.301Z,98306.31
2022-08-17T05:42:46.753Z,98312.41
2022-08-17T05:47:54.350Z,98316.34
2022-08-17T05:53:06.793Z,98318.03
2022-08-17T05:58:23.109Z,98321.78
2022-08-17T06:03:41.816Z,98320.75
2022-08-17T06:08:54.221Z,98312.81
2022-08-17T06:14:22.451Z,98324.56
2022-08-17T06:19:36.816Z,98333.50
2022-08-17T06:24:46.678Z,98333.97
2022-08-17T06:29:56.830Z,98328.09
2022-08-17T06:35:07.113Z,98310.97
2022-08-17T06:40:29.256Z,98319.75
2022-08-17T06:45:38.811Z,98324.13
2022-08-17T06:50:53.637Z,98323.03
2022-08-17T06:56:04.598Z,98333.78
2022-08-17T07:01:14.270Z,98327.66
2022-08-17T07:06:25.251Z,98317.97
2022-08-17T07:11:37.047Z,98326.03
2022-08-17T07:16:46.619Z,98326.09
2022-08-17T07:22:03.275Z,98323.63
2022-08-17T07:27:13.314Z,98332.84
2022-08-17T07:32:22.966Z,98342.09
2022-08-17T07:37:32.448Z,98335.53
2022-08-17T07:42:40.706Z,98333.63
2022-08-17T07:48:05.924Z,98332.03
2022-08-17T07:53:23.215Z,98335.56
2022-08-17T07:58:28.360Z,98348.94
2022-08-17T08:03:34.914Z,98341.75
2022-08-17T08:08:47.316Z,98349.91
2022-08-17T08:13:52.790Z,98336.19
2022-08-17T08:19:00.219Z,98333.34
2022-08-17T08:24:23.372Z,98335.63
2022-08-17T08:29:39.791Z,98332.25
2022-08-17T08:35:02.672Z,98334.44
2022-08-17T08:40:23.092Z,98326.50
2022-08-17T08:45:36.141Z,98334.59
2022-08-17T08:50:48.953Z,98336.88
2022-08-17T08:56:01.355Z,98331.09
2022-08-17T09:01:16.980Z,98330.97
2022-08-17T09:06:40.167Z,98331.09
2022-08-17T09:12:02.024Z,98321.75
2022-08-17T09:17:18.912Z,98330.16
2022-08-17T09:22:33.720Z,98336.78
2022-08-17T09:27:53.324Z,98328.56
2022-08-17T09:33:02.542Z,98323.88
2022-08-17T09:38:17.699Z,98318.81
2022-08-17T09:43:33.456Z,98318.72
2022-08-17T09:48:44.635Z,98314.69
2022-08-17T09:53:50.390Z,98315.56
2022-08-17T09:59:14.153Z,98320.66
2022-08-17T10:04:39.834Z,98308.09
2022-08-17T10:10:00.234Z,98316.97
2022-08-17T10:15:18.983Z,98304.75
2022-08-17T10:20:33.523Z,98315.81
2022-08-17T10:25:55.508Z,98311.19
2022-08-17T10:36:46.342Z,98295.94
2022-08-17T10:41:56.110Z,98291.91
2022-08-17T10:47:11.821Z,98298.25
2022-08-17T10:52:46.686Z,98303.09
2022-08-17T10:57:54.962Z,98304.25
2022-08-17T11:03:02.557Z,98298.44
2022-08-17T11:08:29.296Z,98298.00
2022-08-17T11:13:41.435Z,98293.03
2022-08-17T11:19:14.107Z,98285.44
2022-08-17T11:24:25.151Z,98278.88
2022-08-17T11:29:37.417Z,98277.81
2022-08-17T11:34:47.421Z,98275.09
2022-08-17T11:40:26.052Z,98276.72
2022-08-17T11:45:45.330Z,98278.13
2022-08-17T11:51:12.970Z,98265.25
2022-08-17T11:56:46.530Z,98259.50
2022-08-17T12:01:57.253Z,98252.97
2022-08-17T12:07:13.056Z,98260.34
2022-08-17T12:12:22.546Z,98255.97
2022-08-17T12:17:40.938Z,98263.38
2022-08-17T12:23:04.194Z,98256.69
2022-08-17T12:28:24.843Z,98255.66
2022-08-17T12:33:30.495Z,98248.69
2022-08-17T12:38:41.946Z,98245.81
2022-08-17T12:43:47.029Z,98237.06
2022-08-17T12:48:59.696Z,98241.59
2022-08-17T12:54:07.921Z,98235.13
2022-08-17T12:59:15.500Z,98228.50
2022-08-17T13:04:34.762Z,98219.41
2022-08-17T13:09:42.330Z,98227.63
2022-08-17T13:14:48.567Z,98237.06
2022-08-17T13:19:54.455Z,98234.97
2022-08-17T13:25:07.574Z,98235.53
2022-08-17T13:30:17.723Z,98234.13
2022-08-17T13:35:50.328Z,98223.19
2022-08-17T13:40:58.046Z,98221.22
2022-08-17T13:46:11.687Z,98224.09
2022-08-17T13:51:22.845Z,98223.47
2022-08-17T13:56:39.684Z,98228.03
2022-08-17T14:01:53.537Z,98234.47
2022-08-17T14:07:02.905Z,98227.47
2022-08-17T14:12:15.540Z,98223.34
2022-08-17T14:17:20.650Z,98219.84
2022-08-17T14:22:30.617Z,98224.53
2022-08-17T14:27:41.627Z,98220.53
2022-08-17T14:32:58.480Z,98217.03
2022-08-17T14:38:09.166Z,98209.78
2022-08-17T14:43:17.978Z,98203.25
2022-08-17T14:48:23.100Z,98196.50
2022-08-17T14:53:28.085Z,98182.63
2022-08-17T14:58:35.723Z,98185.28
2022-08-17T15:03:43.974Z,98193.59
2022-08-17T15:08:49.044Z,98199.84
2022-08-17T15:13:56.649Z,98200.53
2022-08-17T15:19:01.575Z,98197.75
2022-08-17T15:24:06.634Z,98200.00
2022-08-17T15:29:14.747Z,98200.19
2022-08-17T15:34:20.259Z,98201.25
2022-08-17T15:39:25.283Z,98197.72
2022-08-17T15:44:35.112Z,98191.44
2022-08-17T15:49:42.337Z,98195.97
2022-08-17T15:54:55.542Z,98203.22
2022-08-17T16:00:05.666Z,98184.41
2022-08-17T16:05:24.205Z,98179.56
2022-08-17T16:10:35.257Z,98163.38
2022-08-17T16:15:43.614Z,98157.56
2022-08-17T16:20:48.582Z,98162.63
2022-08-17T16:25:54.545Z,98148.47
2022-08-17T16:31:02.232Z,98158.97
2022-08-17T16:36:07.778Z,98160.88
2022-08-17T16:41:12.754Z,98159.03
2022-08-17T16:46:20.283Z,98170.84
2022-08-17T16:51:25.187Z,98181.94
2022-08-17T16:56:32.851Z,98188.84
2022-08-17T17:01:41.880Z,98177.25
2022-08-17T17:07:01.155Z,98162.75
2022-08-17T17:12:10.995Z,98169.31
2022-08-17T17:17:27.735Z,98177.09
2022-08-17T17:22:41.160Z,98180.66
2022-08-17T17:27:54.254Z,98180.28
2022-08-17T17:33:08.039Z,98183.19
2022-08-17T17:38:18.254Z,98196.53
2022-08-17T17:43:44.881Z,98205.44
2022-08-17T17:48:52.718Z,98199.72
2022-08-17T17:54:02.759Z,98214.03
2022-08-17T17:59:15.142Z,98211.25
2022-08-17T18:04:36.345Z,98206.03
2022-08-17T18:10:02.739Z,98220.38
2022-08-17T18:15:24.399Z,98219.91
2022-08-17T18:20:43.391Z,98212.88
2022-08-17T18:26:01.572Z,98219.13
2022-08-17T18:31:18.479Z,98218.13
2022-08-17T18:36:33.707Z,98219.09
2022-08-17T18:41:44.229Z,98227.31
2022-08-17T18:46:49.046Z,98221.13
2022-08-17T18:52:13.885Z,98221.03
2022-08-17T18:57:33.183Z,98209.19
2022-08-17T19:02:50.815Z,98216.25
2022-08-17T19:08:20.325Z,98208.31
2022-08-17T19:13:31.288Z,98216.56
2022-08-17T19:18:41.618Z,98215.09
2022-08-17T19:23:54.757Z,98212.09
2022-08-17T19:29:02.788Z,98214.97
2022-08-17T19:34:07.856Z,98225.09
2022-08-17T19:39:26.450Z,98208.66
2022-08-17T19:44:54.769Z,98213.78
2022-08-17T19:50:07.220Z,98210.09
2022-08-17T19:55:23.965Z,98207.19
2022-08-17T20:00:31.110Z,98206.97
2022-08-17T20:06:08.576Z,98208.34
2022-08-17T20:11:12.994Z,98208.44
2022-08-17T20:16:19.822Z,98199.81
2022-08-17T20:21:30.126Z,98196.50
2022-08-17T20:26:49.102Z,98198.25
2022-08-17T20:32:22.046Z,98204.59
2022-08-17T20:37:34.366Z,98212.66
2022-08-17T20:42:41.877Z,98201.22
